sensor_id;sensor_type;location;lat;lon;timestamp;temperature;humidity
3208;DHT22;1616;52.394;9.756;2022-12-10T00:01:50;1.50;2.20
3208;DHT22;1616;52.394;9.756;2022-12-10T00:04:18;1.50;2.30
3208;DHT22;1616;52.394;9.756;2022-12-10T00:06:44;1.50;2.40
3208;DHT22;1616;52.394;9.756;2022-12-10T00:09:12;1.50;2.40
3208;DHT22;1616;52.394;9.756;2022-12-10T00:11:39;1.50;2.40
3208;DHT22;1616;52.394;9.756;2022-12-10T00:14:05;1.50;2.40
3208;DHT22;1616;52.394;9.756;2022-12-10T00:16:32;1.50;2.40
3208;DHT22;1616;52.394;9.756;2022-12-10T00:18:59;1.50;2.30
3208;DHT22;1616;52.394;9.756;2022-12-10T00:21:28;1.50;2.50
3208;DHT22;1616;52.394;9.756;2022-12-10T00:23:55;1.60;2.50
3208;DHT22;1616;52.394;9.756;2022-12-10T00:26:26;1.60;2.50
3208;DHT22;1616;52.394;9.756;2022-12-10T00:28:53;1.60;2.60
3208;DHT22;1616;52.394;9.756;2022-12-10T00:31:21;1.60;2.40
3208;DHT22;1616;52.394;9.756;2022-12-10T00:33:47;1.60;2.50
3208;DHT22;1616;52.394;9.756;2022-12-10T00:36:17;1.60;2.50
3208;DHT22;1616;52.394;9.756;2022-12-10T00:38:43;1.60;2.70
3208;DHT22;1616;52.394;9.756;2022-12-10T00:41:10;1.60;2.60
3208;DHT22;1616;52.394;9.756;2022-12-10T00:43:36;1.60;2.40
3208;DHT22;1616;52.394;9.756;2022-12-10T00:46:02;1.60;2.30
3208;DHT22;1616;52.394;9.756;2022-12-10T00:48:28;1.60;2.40
3208;DHT22;1616;52.394;9.756;2022-12-10T00:51:00;1.60;2.10
3208;DHT22;1616;52.394;9.756;2022-12-10T00:53:27;1.60;2.20
3208;DHT22;1616;52.394;9.756;2022-12-10T00:55:53;1.60;2.40
3208;DHT22;1616;52.394;9.756;2022-12-10T00:58:20;1.60;2.10
3208;DHT22;1616;52.394;9.756;2022-12-10T01:00:46;1.60;2.20
3208;DHT22;1616;52.394;9.756;2022-12-10T01:03:12;1.60;2.30
3208;DHT22;1616;52.394;9.756;2022-12-10T01:05:38;1.60;2.40
3208;DHT22;1616;52.394;9.756;2022-12-10T01:08:04;1.60;2.40
3208;DHT22;1616;52.394;9.756;2022-12-10T01:10:29;1.50;2.20
3208;DHT22;1616;52.394;9.756;2022-12-10T01:12:55;1.50;2.10
3208;DHT22;1616;52.394;9.756;2022-12-10T01:15:20;1.50;2.20
3208;DHT22;1616;52.394;9.756;2022-12-10T01:17:46;1.50;2.20
3208;DHT22;1616;52.394;9.756;2022-12-10T01:20:12;1.50;2.20
3208;DHT22;1616;52.394;9.756;2022-12-10T01:22:38;1.50;2.40
3208;DHT22;1616;52.394;9.756;2022-12-10T01:25:04;1.60;2.50
3208;DHT22;1616;52.394;9.756;2022-12-10T01:27:30;1.60;2.50
3208;DHT22;1616;52.394;9.756;2022-12-10T01:29:55;1.50;2.80
3208;DHT22;1616;52.394;9.756;2022-12-10T01:32:21;1.50;2.20
3208;DHT22;1616;52.394;9.756;2022-12-10T01:34:47;1.50;2.40
3208;DHT22;1616;52.394;9.756;2022-12-10T01:37:12;1.50;2.40
3208;DHT22;1616;52.394;9.756;2022-12-10T01:39:38;1.60;2.50
3208;DHT22;1616;52.394;9.756;2022-12-10T01:42:05;1.50;2.20
3208;DHT22;1616;52.394;9.756;2022-12-10T01:46:59;1.50;2.20
3208;DHT22;1616;52.394;9.756;2022-12-10T01:49:30;1.50;2.30
3208;DHT22;1616;52.394;9.756;2022-12-10T01:51:57;1.50;2.10
3208;DHT22;1616;52.394;9.756;2022-12-10T01:54:27;1.50;2.10
3208;DHT22;1616;52.394;9.756;2022-12-10T01:57:06;1.50;2.20
3208;DHT22;1616;52.394;9.756;2022-12-10T01:59:33;1.50;2.30
3208;DHT22;1616;52.394;9.756;2022-12-10T02:02:21;1.50;2.40
3208;DHT22;1616;52.394;9.756;2022-12-10T02:05:22;1.50;2.40
3208;DHT22;1616;52.394;9.756;2022-12-10T02:08:14;1.50;2.30
3208;DHT22;1616;52.394;9.756;2022-12-10T02:10:49;1.50;2.30
3208;DHT22;1616;52.394;9.756;2022-12-10T02:13:41;1.50;2.20
3208;DHT22;1616;52.394;9.756;2022-12-10T02:16:37;1.50;2.20
3208;DHT22;1616;52.394;9.756;2022-12-10T02:19:41;1.50;2.10
3208;DHT22;1616;52.394;9.756;2022-12-10T02:22:02;1.50;2.10
3208;DHT22;1616;52.394;9.756;2022-12-10T02:24:33;1.50;2.10
3208;DHT22;1616;52.394;9.756;2022-12-10T02:30:07;1.40;1.70
3208;DHT22;1616;52.394;9.756;2022-12-10T02:32:36;1.40;1.60
3208;DHT22;1616;52.394;9.756;2022-12-10T02:35:09;1.30;1.60
3208;DHT22;1616;52.394;9.756;2022-12-10T02:37:40;1.30;1.80
3208;DHT22;1616;52.394;9.756;2022-12-10T02:40:13;1.30;1.90
3208;DHT22;1616;52.394;9.756;2022-12-10T02:42:43;1.30;2.10
3208;DHT22;1616;52.394;9.756;2022-12-10T02:45:10;1.30;2.40
3208;DHT22;1616;52.394;9.756;2022-12-10T02:47:36;1.40;2.60
3208;DHT22;1616;52.394;9.756;2022-12-10T02:50:05;1.40;2.60
3208;DHT22;1616;52.394;9.756;2022-12-10T02:52:31;1.40;2.40
3208;DHT22;1616;52.394;9.756;2022-12-10T02:54:57;1.40;2.10
3208;DHT22;1616;52.394;9.756;2022-12-10T03:00:17;1.30;2.00
3208;DHT22;1616;52.394;9.756;2022-12-10T03:05:58;1.30;2.40
3208;DHT22;1616;52.394;9.756;2022-12-10T03:08:37;1.30;2.10
3208;DHT22;1616;52.394;9.756;2022-12-10T03:11:15;1.30;1.90
3208;DHT22;1616;52.394;9.756;2022-12-10T03:14:02;1.30;1.90
3208;DHT22;1616;52.394;9.756;2022-12-10T03:16:33;1.20;2.20
3208;DHT22;1616;52.394;9.756;2022-12-10T03:19:03;1.30;2.40
3208;DHT22;1616;52.394;9.756;2022-12-10T03:21:30;1.30;2.10
3208;DHT22;1616;52.394;9.756;2022-12-10T03:23:58;1.30;2.20
3208;DHT22;1616;52.394;9.756;2022-12-10T03:26:25;1.30;2.20
3208;DHT22;1616;52.394;9.756;2022-12-10T03:28:56;1.30;2.40
3208;DHT22;1616;52.394;9.756;2022-12-10T03:31:23;1.30;2.40
3208;DHT22;1616;52.394;9.756;2022-12-10T03:33:49;1.30;2.40
3208;DHT22;1616;52.394;9.756;2022-12-10T03:36:17;1.30;2.30
3208;DHT22;1616;52.394;9.756;2022-12-10T03:38:44;1.30;2.40
3208;DHT22;1616;52.394;9.756;2022-12-10T03:41:10;1.40;2.60
3208;DHT22;1616;52.394;9.756;2022-12-10T03:43:40;1.40;2.60
3208;DHT22;1616;52.394;9.756;2022-12-10T03:46:14;1.40;2.00
3208;DHT22;1616;52.394;9.756;2022-12-10T03:48:41;1.30;2.10
3208;DHT22;1616;52.394;9.756;2022-12-10T03:51:06;1.30;2.00
3208;DHT22;1616;52.394;9.756;2022-12-10T03:53:32;1.30;2.10
3208;DHT22;1616;52.394;9.756;2022-12-10T03:55:58;1.30;2.30
3208;DHT22;1616;52.394;9.756;2022-12-10T03:58:23;1.40;2.50
3208;DHT22;1616;52.394;9.756;2022-12-10T04:00:49;1.40;2.60
3208;DHT22;1616;52.394;9.756;2022-12-10T04:03:15;1.40;2.40
3208;DHT22;1616;52.394;9.756;2022-12-10T04:05:41;1.40;2.40
3208;DHT22;1616;52.394;9.756;2022-12-10T04:08:06;1.40;2.80
3208;DHT22;1616;52.394;9.756;2022-12-10T04:10:38;1.40;2.30
3208;DHT22;1616;52.394;9.756;2022-12-10T04:13:03;1.40;2.10
3208;DHT22;1616;52.394;9.756;2022-12-10T04:15:48;1.30;1.60
3208;DHT22;1616;52.394;9.756;2022-12-10T04:18:33;1.30;1.50
3208;DHT22;1616;52.394;9.756;2022-12-10T04:20:59;1.20;1.50
3208;DHT22;1616;52.394;9.756;2022-12-10T04:23:43;1.20;1.90
3208;DHT22;1616;52.394;9.756;2022-12-10T04:26:27;1.20;1.90
3208;DHT22;1616;52.394;9.756;2022-12-10T04:29:11;1.20;1.60
3208;DHT22;1616;52.394;9.756;2022-12-10T04:31:37;1.10;1.60
3208;DHT22;1616;52.394;9.756;2022-12-10T04:34:03;1.10;1.60
3208;DHT22;1616;52.394;9.756;2022-12-10T04:36:29;1.10;1.50
3208;DHT22;1616;52.394;9.756;2022-12-10T04:38:54;1.10;1.80
3208;DHT22;1616;52.394;9.756;2022-12-10T04:41:20;1.10;1.70
3208;DHT22;1616;52.394;9.756;2022-12-10T04:43:45;1.00;1.80
3208;DHT22;1616;52.394;9.756;2022-12-10T04:46:11;1.10;1.80
3208;DHT22;1616;52.394;9.756;2022-12-10T04:48:37;1.00;2.00
3208;DHT22;1616;52.394;9.756;2022-12-10T04:51:04;1.10;1.80
3208;DHT22;1616;52.394;9.756;2022-12-10T04:53:29;1.00;1.70
3208;DHT22;1616;52.394;9.756;2022-12-10T04:55:55;1.00;1.70
3208;DHT22;1616;52.394;9.756;2022-12-10T04:58:21;1.00;2.00
3208;DHT22;1616;52.394;9.756;2022-12-10T05:00:46;1.00;1.60
3208;DHT22;1616;52.394;9.756;2022-12-10T05:03:12;1.00;2.40
3208;DHT22;1616;52.394;9.756;2022-12-10T05:05:38;1.00;2.10
3208;DHT22;1616;52.394;9.756;2022-12-10T05:08:04;1.00;1.90
3208;DHT22;1616;52.394;9.756;2022-12-10T05:10:30;1.00;2.00
3208;DHT22;1616;52.394;9.756;2022-12-10T05:12:55;0.90;1.30
3208;DHT22;1616;52.394;9.756;2022-12-10T05:15:21;0.90;1.10
3208;DHT22;1616;52.394;9.756;2022-12-10T05:17:47;0.90;1.40
3208;DHT22;1616;52.394;9.756;2022-12-10T05:20:12;0.90;1.60
3208;DHT22;1616;52.394;9.756;2022-12-10T05:22:38;0.90;1.40
3208;DHT22;1616;52.394;9.756;2022-12-10T05:25:22;0.80;1.50
3208;DHT22;1616;52.394;9.756;2022-12-10T05:27:48;0.80;1.30
3208;DHT22;1616;52.394;9.756;2022-12-10T05:30:14;0.80;1.00
3208;DHT22;1616;52.394;9.756;2022-12-10T05:32:39;0.80;1.30
3208;DHT22;1616;52.394;9.756;2022-12-10T05:35:05;0.80;1.40
3208;DHT22;1616;52.394;9.756;2022-12-10T05:37:31;0.80;1.40
3208;DHT22;1616;52.394;9.756;2022-12-10T05:39:57;0.80;1.40
3208;DHT22;1616;52.394;9.756;2022-12-10T05:42:23;0.80;1.50
3208;DHT22;1616;52.394;9.756;2022-12-10T05:44:49;0.80;1.40
3208;DHT22;1616;52.394;9.756;2022-12-10T05:47:15;0.70;1.40
3208;DHT22;1616;52.394;9.756;2022-12-10T05:49:41;0.70;1.40
3208;DHT22;1616;52.394;9.756;2022-12-10T05:52:06;0.70;1.40
3208;DHT22;1616;52.394;9.756;2022-12-10T05:54:35;0.70;1.30
3208;DHT22;1616;52.394;9.756;2022-12-10T05:57:00;0.70;1.30
3208;DHT22;1616;52.394;9.756;2022-12-10T05:59:26;0.70;1.20
3208;DHT22;1616;52.394;9.756;2022-12-10T06:01:51;0.70;1.40
3208;DHT22;1616;52.394;9.756;2022-12-10T06:04:17;0.70;1.00
3208;DHT22;1616;52.394;9.756;2022-12-10T06:06:44;0.70;1.20
3208;DHT22;1616;52.394;9.756;2022-12-10T06:09:13;0.70;1.90
3208;DHT22;1616;52.394;9.756;2022-12-10T06:11:38;0.70;1.20
3208;DHT22;1616;52.394;9.756;2022-12-10T06:14:04;0.70;1.00
3208;DHT22;1616;52.394;9.756;2022-12-10T06:16:30;0.60;1.20
3208;DHT22;1616;52.394;9.756;2022-12-10T06:18:57;0.60;1.00
3208;DHT22;1616;52.394;9.756;2022-12-10T06:21:23;0.60;1.00
3208;DHT22;1616;52.394;9.756;2022-12-10T06:23:50;0.60;1.10
3208;DHT22;1616;52.394;9.756;2022-12-10T06:26:24;0.60;1.30
3208;DHT22;1616;52.394;9.756;2022-12-10T06:28:51;0.60;1.30
3208;DHT22;1616;52.394;9.756;2022-12-10T06:31:17;0.60;1.60
3208;DHT22;1616;52.394;9.756;2022-12-10T06:33:43;0.60;1.50
3208;DHT22;1616;52.394;9.756;2022-12-10T06:36:11;0.60;1.30
3208;DHT22;1616;52.394;9.756;2022-12-10T06:38:38;0.70;1.50
3208;DHT22;1616;52.394;9.756;2022-12-10T06:41:05;0.60;1.10
3208;DHT22;1616;52.394;9.756;2022-12-10T06:43:31;0.60;1.30
3208;DHT22;1616;52.394;9.756;2022-12-10T06:45:58;0.60;1.10
3208;DHT22;1616;52.394;9.756;2022-12-10T06:48:24;0.60;1.00
3208;DHT22;1616;52.394;9.756;2022-12-10T06:50:50;0.60;1.00
3208;DHT22;1616;52.394;9.756;2022-12-10T06:53:16;0.60;1.00
3208;DHT22;1616;52.394;9.756;2022-12-10T06:55:42;0.60;1.00
3208;DHT22;1616;52.394;9.756;2022-12-10T06:58:07;0.50;1.00
3208;DHT22;1616;52.394;9.756;2022-12-10T07:00:33;0.50;1.00
3208;DHT22;1616;52.394;9.756;2022-12-10T07:02:59;0.50;1.00
3208;DHT22;1616;52.394;9.756;2022-12-10T07:05:25;0.50;1.00
3208;DHT22;1616;52.394;9.756;2022-12-10T07:07:51;0.50;1.00
3208;DHT22;1616;52.394;9.756;2022-12-10T07:10:16;0.50;1.00
3208;DHT22;1616;52.394;9.756;2022-12-10T07:12:42;0.50;1.00
3208;DHT22;1616;52.394;9.756;2022-12-10T07:15:08;0.50;1.00
3208;DHT22;1616;52.394;9.756;2022-12-10T07:17:34;0.60;1.10
3208;DHT22;1616;52.394;9.756;2022-12-10T07:19:59;0.60;1.10
3208;DHT22;1616;52.394;9.756;2022-12-10T07:22:25;0.50;1.60
3208;DHT22;1616;52.394;9.756;2022-12-10T07:24:51;0.60;1.10
3208;DHT22;1616;52.394;9.756;2022-12-10T07:27:16;0.50;1.10
3208;DHT22;1616;52.394;9.756;2022-12-10T07:29:43;0.50;1.20
3208;DHT22;1616;52.394;9.756;2022-12-10T07:32:09;0.50;1.20
3208;DHT22;1616;52.394;9.756;2022-12-10T07:34:35;0.50;1.20
3208;DHT22;1616;52.394;9.756;2022-12-10T07:37:03;0.60;1.20
3208;DHT22;1616;52.394;9.756;2022-12-10T07:39:29;0.60;1.00
3208;DHT22;1616;52.394;9.756;2022-12-10T07:41:54;0.50;1.00
3208;DHT22;1616;52.394;9.756;2022-12-10T07:44:23;0.50;1.10
3208;DHT22;1616;52.394;9.756;2022-12-10T07:46:51;0.50;1.10
3208;DHT22;1616;52.394;9.756;2022-12-10T07:49:17;0.50;1.00
3208;DHT22;1616;52.394;9.756;2022-12-10T07:51:47;0.60;1.00
3208;DHT22;1616;52.394;9.756;2022-12-10T07:54:14;0.40;1.20
3208;DHT22;1616;52.394;9.756;2022-12-10T07:56:40;0.50;1.30
3208;DHT22;1616;52.394;9.756;2022-12-10T07:59:05;0.50;1.30
3208;DHT22;1616;52.394;9.756;2022-12-10T08:01:32;0.50;1.30
3208;DHT22;1616;52.394;9.756;2022-12-10T08:03:58;0.50;1.70
3208;DHT22;1616;52.394;9.756;2022-12-10T08:06:25;0.50;2.00
3208;DHT22;1616;52.394;9.756;2022-12-10T08:08:51;0.50;2.10
3208;DHT22;1616;52.394;9.756;2022-12-10T08:11:19;0.60;2.60
3208;DHT22;1616;52.394;9.756;2022-12-10T08:13:44;0.60;2.60
3208;DHT22;1616;52.394;9.756;2022-12-10T08:16:16;0.60;2.40
3208;DHT22;1616;52.394;9.756;2022-12-10T08:18:42;0.60;2.40
3208;DHT22;1616;52.394;9.756;2022-12-10T08:21:11;0.60;2.50
3208;DHT22;1616;52.394;9.756;2022-12-10T08:23:37;0.70;2.20
3208;DHT22;1616;52.394;9.756;2022-12-10T08:26:05;0.70;2.40
3208;DHT22;1616;52.394;9.756;2022-12-10T08:28:31;0.70;2.50
3208;DHT22;1616;52.394;9.756;2022-12-10T08:30:57;0.70;2.40
3208;DHT22;1616;52.394;9.756;2022-12-10T08:33:22;0.70;2.40
3208;DHT22;1616;52.394;9.756;2022-12-10T08:35:48;0.70;2.50
3208;DHT22;1616;52.394;9.756;2022-12-10T08:38:13;0.70;2.70
3208;DHT22;1616;52.394;9.756;2022-12-10T08:40:40;0.80;2.50
3208;DHT22;1616;52.394;9.756;2022-12-10T08:43:08;0.90;2.60
3208;DHT22;1616;52.394;9.756;2022-12-10T08:45:35;0.80;2.70
3208;DHT22;1616;52.394;9.756;2022-12-10T08:48:02;0.80;2.80
3208;DHT22;1616;52.394;9.756;2022-12-10T08:50:28;0.80;2.80
3208;DHT22;1616;52.394;9.756;2022-12-10T08:52:54;0.80;2.80
3208;DHT22;1616;52.394;9.756;2022-12-10T08:55:20;0.90;3.60
3208;DHT22;1616;52.394;9.756;2022-12-10T08:57:45;0.90;2.80
3208;DHT22;1616;52.394;9.756;2022-12-10T09:00:12;0.90;2.90
3208;DHT22;1616;52.394;9.756;2022-12-10T09:02:39;0.90;2.90
3208;DHT22;1616;52.394;9.756;2022-12-10T09:05:05;1.00;2.90
3208;DHT22;1616;52.394;9.756;2022-12-10T09:07:31;0.90;2.70
3208;DHT22;1616;52.394;9.756;2022-12-10T09:09:56;0.90;2.70
3208;DHT22;1616;52.394;9.756;2022-12-10T09:12:23;1.00;2.90
3208;DHT22;1616;52.394;9.756;2022-12-10T09:14:48;0.90;3.40
3208;DHT22;1616;52.394;9.756;2022-12-10T09:17:14;1.00;2.90
3208;DHT22;1616;52.394;9.756;2022-12-10T09:19:40;1.00;2.90
3208;DHT22;1616;52.394;9.756;2022-12-10T09:22:05;1.00;3.10
3208;DHT22;1616;52.394;9.756;2022-12-10T09:24:31;1.00;3.00
3208;DHT22;1616;52.394;9.756;2022-12-10T09:26:57;1.00;3.10
3208;DHT22;1616;52.394;9.756;2022-12-10T09:29:22;1.00;2.50
3208;DHT22;1616;52.394;9.756;2022-12-10T09:31:52;1.00;2.30
3208;DHT22;1616;52.394;9.756;2022-12-10T09:34:18;1.00;2.70
3208;DHT22;1616;52.394;9.756;2022-12-10T09:36:44;1.00;2.60
3208;DHT22;1616;52.394;9.756;2022-12-10T09:39:11;1.00;2.50
3208;DHT22;1616;52.394;9.756;2022-12-10T09:46:52;1.00;2.90
3208;DHT22;1616;52.394;9.756;2022-12-10T09:52:21;1.00;3.20
3208;DHT22;1616;52.394;9.756;2022-12-10T09:54:57;1.00;3.10
3208;DHT22;1616;52.394;9.756;2022-12-10T09:57:35;1.10;3.60
3208;DHT22;1616;52.394;9.756;2022-12-10T10:00:20;1.20;3.90
3208;DHT22;1616;52.394;9.756;2022-12-10T10:02:47;1.10;4.10
3208;DHT22;1616;52.394;9.756;2022-12-10T10:05:22;1.10;4.10
3208;DHT22;1616;52.394;9.756;2022-12-10T10:07:53;1.20;4.00
3208;DHT22;1616;52.394;9.756;2022-12-10T10:10:25;1.20;4.00
3208;DHT22;1616;52.394;9.756;2022-12-10T10:13:00;1.20;4.00
3208;DHT22;1616;52.394;9.756;2022-12-10T10:15:32;1.30;3.90
3208;DHT22;1616;52.394;9.756;2022-12-10T10:18:48;1.30;3.90
3208;DHT22;1616;52.394;9.756;2022-12-10T10:20:48;1.30;3.70
3208;DHT22;1616;52.394;9.756;2022-12-10T10:23:15;1.30;3.40
3208;DHT22;1616;52.394;9.756;2022-12-10T10:25:42;1.30;3.10
3208;DHT22;1616;52.394;9.756;2022-12-10T10:28:11;1.30;3.40
3208;DHT22;1616;52.394;9.756;2022-12-10T10:30:41;1.30;3.70
3208;DHT22;1616;52.394;9.756;2022-12-10T10:33:10;1.30;3.80
3208;DHT22;1616;52.394;9.756;2022-12-10T10:35:48;1.30;3.90
3208;DHT22;1616;52.394;9.756;2022-12-10T10:38:18;1.30;3.90
3208;DHT22;1616;52.394;9.756;2022-12-10T10:41:11;1.30;4.00
3208;DHT22;1616;52.394;9.756;2022-12-10T10:43:42;1.30;3.80
3208;DHT22;1616;52.394;9.756;2022-12-10T10:46:16;1.30;4.00
3208;DHT22;1616;52.394;9.756;2022-12-10T10:48:43;1.30;4.00
3208;DHT22;1616;52.394;9.756;2022-12-10T10:56:32;1.40;4.50
3208;DHT22;1616;52.394;9.756;2022-12-10T10:59:30;1.40;4.10
3208;DHT22;1616;52.394;9.756;2022-12-10T11:02:16;1.40;3.90
3208;DHT22;1616;52.394;9.756;2022-12-10T11:04:48;1.40;4.10
3208;DHT22;1616;52.394;9.756;2022-12-10T11:09:55;1.40;3.70
3208;DHT22;1616;52.394;9.756;2022-12-10T11:15:01;1.40;3.70
3208;DHT22;1616;52.394;9.756;2022-12-10T11:17:27;1.40;3.60
3208;DHT22;1616;52.394;9.756;2022-12-10T11:20:46;1.40;3.80
3208;DHT22;1616;52.394;9.756;2022-12-10T11:23:12;1.20;3.60
3208;DHT22;1616;52.394;9.756;2022-12-10T11:26:04;1.40;3.80
3208;DHT22;1616;52.394;9.756;2022-12-10T11:36:46;1.40;3.80
3208;DHT22;1616;52.394;9.756;2022-12-10T11:39:22;1.40;3.90
3208;DHT22;1616;52.394;9.756;2022-12-10T11:42:04;1.40;4.00
3208;DHT22;1616;52.394;9.756;2022-12-10T11:49:52;1.50;4.30
3208;DHT22;1616;52.394;9.756;2022-12-10T12:01:02;1.50;4.40
3208;DHT22;1616;52.394;9.756;2022-12-10T12:09:29;1.60;4.40
3208;DHT22;1616;52.394;9.756;2022-12-10T12:12:13;1.60;4.30
3208;DHT22;1616;52.394;9.756;2022-12-10T12:14:51;1.60;3.80
3208;DHT22;1616;52.394;9.756;2022-12-10T12:17:35;1.60;3.70
3208;DHT22;1616;52.394;9.756;2022-12-10T12:20:17;1.50;3.20
3208;DHT22;1616;52.394;9.756;2022-12-10T12:22:58;1.50;3.30
3208;DHT22;1616;52.394;9.756;2022-12-10T12:25:38;1.40;3.20
3208;DHT22;1616;52.394;9.756;2022-12-10T12:28:10;1.40;3.20
3208;DHT22;1616;52.394;9.756;2022-12-10T12:30:37;1.40;3.40
3208;DHT22;1616;52.394;9.756;2022-12-10T12:36:00;1.40;3.40
3208;DHT22;1616;52.394;9.756;2022-12-10T12:45:10;1.40;3.50
3208;DHT22;1616;52.394;9.756;2022-12-10T12:49:53;1.40;3.50
3208;DHT22;1616;52.394;9.756;2022-12-10T12:54:53;1.40;3.50
3208;DHT22;1616;52.394;9.756;2022-12-10T13:00:04;1.30;3.10
3208;DHT22;1616;52.394;9.756;2022-12-10T13:05:29;1.30;3.50
3208;DHT22;1616;52.394;9.756;2022-12-10T13:08:15;1.30;3.50
3208;DHT22;1616;52.394;9.756;2022-12-10T13:13:33;1.40;3.70
3208;DHT22;1616;52.394;9.756;2022-12-10T13:22:11;1.50;4.20
3208;DHT22;1616;52.394;9.756;2022-12-10T13:27:34;1.50;4.00
3208;DHT22;1616;52.394;9.756;2022-12-10T13:38:04;1.50;3.50
3208;DHT22;1616;52.394;9.756;2022-12-10T13:49:05;1.50;3.60
3208;DHT22;1616;52.394;9.756;2022-12-10T14:00:22;1.50;3.60
3208;DHT22;1616;52.394;9.756;2022-12-10T14:06:14;1.50;3.20
3208;DHT22;1616;52.394;9.756;2022-12-10T14:11:31;1.50;3.20
3208;DHT22;1616;52.394;9.756;2022-12-10T14:13:59;1.50;3.20
3208;DHT22;1616;52.394;9.756;2022-12-10T14:16:31;1.50;3.20
3208;DHT22;1616;52.394;9.756;2022-12-10T14:19:00;1.50;3.20
3208;DHT22;1616;52.394;9.756;2022-12-10T14:21:32;1.40;3.20
3208;DHT22;1616;52.394;9.756;2022-12-10T14:23:58;1.50;3.20
3208;DHT22;1616;52.394;9.756;2022-12-10T14:26:29;1.50;2.80
3208;DHT22;1616;52.394;9.756;2022-12-10T14:31:38;1.40;2.90
3208;DHT22;1616;52.394;9.756;2022-12-10T14:34:08;1.40;2.60
3208;DHT22;1616;52.394;9.756;2022-12-10T14:36:38;1.40;2.80
3208;DHT22;1616;52.394;9.756;2022-12-10T14:39:14;1.40;2.50
3208;DHT22;1616;52.394;9.756;2022-12-10T14:41:41;1.40;2.60
3208;DHT22;1616;52.394;9.756;2022-12-10T14:44:11;1.40;2.60
3208;DHT22;1616;52.394;9.756;2022-12-10T14:46:38;1.40;2.80
3208;DHT22;1616;52.394;9.756;2022-12-10T14:49:04;1.40;3.00
3208;DHT22;1616;52.394;9.756;2022-12-10T14:51:37;1.40;2.80
3208;DHT22;1616;52.394;9.756;2022-12-10T14:54:02;1.40;2.60
3208;DHT22;1616;52.394;9.756;2022-12-10T14:56:36;1.50;2.60
3208;DHT22;1616;52.394;9.756;2022-12-10T14:59:13;1.40;2.50
3208;DHT22;1616;52.394;9.756;2022-12-10T15:01:43;1.30;2.50
3208;DHT22;1616;52.394;9.756;2022-12-10T15:04:14;1.30;2.70
3208;DHT22;1616;52.394;9.756;2022-12-10T15:06:41;1.40;2.90
3208;DHT22;1616;52.394;9.756;2022-12-10T15:09:20;1.40;2.90
3208;DHT22;1616;52.394;9.756;2022-12-10T15:11:57;1.40;2.90
3208;DHT22;1616;52.394;9.756;2022-12-10T15:14:25;1.40;2.90
3208;DHT22;1616;52.394;9.756;2022-12-10T15:16:51;1.40;2.80
3208;DHT22;1616;52.394;9.756;2022-12-10T15:19:23;1.40;2.60
3208;DHT22;1616;52.394;9.756;2022-12-10T15:21:50;1.40;2.80
3208;DHT22;1616;52.394;9.756;2022-12-10T15:26:46;1.40;2.20
3208;DHT22;1616;52.394;9.756;2022-12-10T15:29:30;1.40;2.10
3208;DHT22;1616;52.394;9.756;2022-12-10T15:31:59;1.30;1.50
3208;DHT22;1616;52.394;9.756;2022-12-10T15:34:39;1.30;1.40
3208;DHT22;1616;52.394;9.756;2022-12-10T15:37:15;1.20;1.60
3208;DHT22;1616;52.394;9.756;2022-12-10T15:39:51;1.20;1.70
3208;DHT22;1616;52.394;9.756;2022-12-10T15:45:04;1.20;2.10
3208;DHT22;1616;52.394;9.756;2022-12-10T15:47:34;1.20;2.40
3208;DHT22;1616;52.394;9.756;2022-12-10T15:50:03;1.20;2.40
3208;DHT22;1616;52.394;9.756;2022-12-10T15:52:30;1.20;2.30
3208;DHT22;1616;52.394;9.756;2022-12-10T15:54:57;1.20;3.00
3208;DHT22;1616;52.394;9.756;2022-12-10T15:57:34;1.20;2.10
3208;DHT22;1616;52.394;9.756;2022-12-10T16:00:07;1.20;2.00
3208;DHT22;1616;52.394;9.756;2022-12-10T16:02:55;1.20;2.10
3208;DHT22;1616;52.394;9.756;2022-12-10T16:05:23;1.20;2.40
3208;DHT22;1616;52.394;9.756;2022-12-10T16:07:51;1.20;2.30
3208;DHT22;1616;52.394;9.756;2022-12-10T16:10:19;1.20;2.00
3208;DHT22;1616;52.394;9.756;2022-12-10T16:12:49;1.20;2.00
3208;DHT22;1616;52.394;9.756;2022-12-10T16:15:23;1.20;2.00
3208;DHT22;1616;52.394;9.756;2022-12-10T16:17:52;1.20;2.00
3208;DHT22;1616;52.394;9.756;2022-12-10T16:20:23;1.20;2.10
3208;DHT22;1616;52.394;9.756;2022-12-10T16:22:52;1.20;2.10
3208;DHT22;1616;52.394;9.756;2022-12-10T16:25:18;1.20;2.20
3208;DHT22;1616;52.394;9.756;2022-12-10T16:27:44;1.20;2.10
3208;DHT22;1616;52.394;9.756;2022-12-10T16:32:40;1.20;2.10
3208;DHT22;1616;52.394;9.756;2022-12-10T16:35:06;1.10;2.00
3208;DHT22;1616;52.394;9.756;2022-12-10T16:37:32;1.10;2.10
3208;DHT22;1616;52.394;9.756;2022-12-10T16:39:57;1.10;2.10
3208;DHT22;1616;52.394;9.756;2022-12-10T16:42:23;1.20;1.90
3208;DHT22;1616;52.394;9.756;2022-12-10T16:44:49;1.10;1.50
3208;DHT22;1616;52.394;9.756;2022-12-10T16:47:15;1.10;1.60
3208;DHT22;1616;52.394;9.756;2022-12-10T16:49:41;1.10;1.50
3208;DHT22;1616;52.394;9.756;2022-12-10T16:52:06;1.10;1.30
3208;DHT22;1616;52.394;9.756;2022-12-10T16:54:32;1.00;1.30
3208;DHT22;1616;52.394;9.756;2022-12-10T16:56:58;1.00;1.50
3208;DHT22;1616;52.394;9.756;2022-12-10T16:59:24;1.00;1.70
3208;DHT22;1616;52.394;9.756;2022-12-10T17:01:49;1.00;1.80
3208;DHT22;1616;52.394;9.756;2022-12-10T17:04:15;1.00;1.90
3208;DHT22;1616;52.394;9.756;2022-12-10T17:06:41;1.00;2.00
3208;DHT22;1616;52.394;9.756;2022-12-10T17:09:07;1.10;2.20
3208;DHT22;1616;52.394;9.756;2022-12-10T17:11:41;1.10;2.10
3208;DHT22;1616;52.394;9.756;2022-12-10T17:14:31;1.10;1.80
3208;DHT22;1616;52.394;9.756;2022-12-10T17:16:59;1.10;1.70
3208;DHT22;1616;52.394;9.756;2022-12-10T17:19:29;1.10;2.20
3208;DHT22;1616;52.394;9.756;2022-12-10T17:21:55;1.20;2.00
3208;DHT22;1616;52.394;9.756;2022-12-10T17:24:21;1.10;1.90
3208;DHT22;1616;52.394;9.756;2022-12-10T17:26:51;1.10;1.90
3208;DHT22;1616;52.394;9.756;2022-12-10T17:29:24;1.10;1.80
3208;DHT22;1616;52.394;9.756;2022-12-10T17:31:51;1.10;1.60
3208;DHT22;1616;52.394;9.756;2022-12-10T17:34:16;1.10;1.80
3208;DHT22;1616;52.394;9.756;2022-12-10T17:36:43;1.10;2.50
3208;DHT22;1616;52.394;9.756;2022-12-10T17:39:15;1.20;2.10
3208;DHT22;1616;52.394;9.756;2022-12-10T17:41:42;1.20;2.20
3208;DHT22;1616;52.394;9.756;2022-12-10T17:44:07;1.20;2.30
3208;DHT22;1616;52.394;9.756;2022-12-10T17:46:33;1.20;2.20
3208;DHT22;1616;52.394;9.756;2022-12-10T17:48:59;1.20;2.30
3208;DHT22;1616;52.394;9.756;2022-12-10T17:51:26;1.30;2.50
3208;DHT22;1616;52.394;9.756;2022-12-10T17:53:52;1.30;2.40
3208;DHT22;1616;52.394;9.756;2022-12-10T17:56:20;1.30;2.40
3208;DHT22;1616;52.394;9.756;2022-12-10T17:58:47;1.30;2.40
3208;DHT22;1616;52.394;9.756;2022-12-10T18:01:15;1.30;2.20
3208;DHT22;1616;52.394;9.756;2022-12-10T18:03:42;1.30;2.40
3208;DHT22;1616;52.394;9.756;2022-12-10T18:06:21;1.40;2.40
3208;DHT22;1616;52.394;9.756;2022-12-10T18:08:49;1.40;2.20
3208;DHT22;1616;52.394;9.756;2022-12-10T18:11:18;1.40;2.60
3208;DHT22;1616;52.394;9.756;2022-12-10T18:13:44;1.40;2.50
3208;DHT22;1616;52.394;9.756;2022-12-10T18:16:18;1.40;2.30
3208;DHT22;1616;52.394;9.756;2022-12-10T18:18:45;1.30;1.90
3208;DHT22;1616;52.394;9.756;2022-12-10T18:21:16;1.30;1.70
3208;DHT22;1616;52.394;9.756;2022-12-10T18:23:45;1.30;1.80
3208;DHT22;1616;52.394;9.756;2022-12-10T18:26:18;1.40;1.90
3208;DHT22;1616;52.394;9.756;2022-12-10T18:28:56;1.40;1.70
3208;DHT22;1616;52.394;9.756;2022-12-10T18:31:27;1.40;1.60
3208;DHT22;1616;52.394;9.756;2022-12-10T18:33:56;1.30;1.70
3208;DHT22;1616;52.394;9.756;2022-12-10T18:36:29;1.30;1.60
3208;DHT22;1616;52.394;9.756;2022-12-10T18:38:57;1.30;1.60
3208;DHT22;1616;52.394;9.756;2022-12-10T18:41:24;1.30;1.20
3208;DHT22;1616;52.394;9.756;2022-12-10T18:43:50;1.30;1.30
3208;DHT22;1616;52.394;9.756;2022-12-10T18:46:20;1.20;1.30
3208;DHT22;1616;52.394;9.756;2022-12-10T18:48:46;1.20;1.10
3208;DHT22;1616;52.394;9.756;2022-12-10T18:51:14;1.20;1.30
3208;DHT22;1616;52.394;9.756;2022-12-10T18:53:41;1.20;1.50
3208;DHT22;1616;52.394;9.756;2022-12-10T18:56:11;1.20;1.40
3208;DHT22;1616;52.394;9.756;2022-12-10T18:58:37;1.30;1.60
3208;DHT22;1616;52.394;9.756;2022-12-10T19:01:06;1.30;1.60